createdAt,value
2023-02-22T00:00:46.350Z,99755.78
2023-02-22T00:01:42.989Z,99758.34
2023-02-22T00:02:27.174Z,99755.91
2023-02-22T00:03:00.103Z,99757.53
2023-02-22T00:03:35.212Z,99757.28
2023-02-22T00:04:07.701Z,99760.00
2023-02-22T00:04:42.157Z,99763.00
2023-02-22T00:05:16.906Z,99763.53
2023-02-22T00:05:48.741Z,99757.69
2023-02-22T00:06:25.247Z,99758.59
2023-02-22T00:07:01.385Z,99768.03
2023-02-22T00:07:33.856Z,99766.03
2023-02-22T00:08:10.095Z,99759.84
2023-02-22T00:08:41.891Z,99769.56
2023-02-22T00:09:20.410Z,99770.06
2023-02-22T00:10:26.448Z,99765.91
2023-02-22T00:11:04.200Z,99771.56
2023-02-22T00:11:35.995Z,99770.28
2023-02-22T00:12:09.704Z,99772.66
2023-02-22T00:12:43.001Z,99773.66
2023-02-22T00:13:15.046Z,99764.78
2023-02-22T00:13:47.755Z,99773.94
2023-02-22T00:14:20.618Z,99768.06
2023-02-22T00:14:52.478Z,99775.44
2023-02-22T00:15:27.979Z,99774.75
2023-02-22T00:16:00.689Z,99774.06
2023-02-22T00:16:32.628Z,99771.81
2023-02-22T00:17:04.766Z,99783.22
2023-02-22T00:17:36.853Z,99772.50
2023-02-22T00:18:13.992Z,99776.19
2023-02-22T00:18:46.139Z,99772.72
2023-02-22T00:19:17.985Z,99772.13
2023-02-22T00:19:50.361Z,99776.91
2023-02-22T00:20:23.536Z,99783.84
2023-02-22T00:20:56.338Z,99781.00
2023-02-22T00:21:28.123Z,99783.41
2023-02-22T00:22:00.388Z,99783.69
2023-02-22T00:22:32.156Z,99775.97
2023-02-22T00:23:07.266Z,99779.50
2023-02-22T00:23:46.651Z,99780.59
2023-02-22T00:24:23.430Z,99771.19
2023-02-22T00:24:57.515Z,99772.19
2023-02-22T00:25:29.756Z,99779.75
2023-02-22T00:26:01.806Z,99784.16
2023-02-22T00:26:33.870Z,99781.22
2023-02-22T00:27:05.670Z,99787.53
2023-02-22T00:27:37.752Z,99775.97
2023-02-22T00:28:09.561Z,99776.44
2023-02-22T00:28:43.261Z,99775.44
2023-02-22T00:29:15.091Z,99780.50
2023-02-22T00:29:46.961Z,99788.38
2023-02-22T00:30:23.291Z,99779.66
2023-02-22T00:30:55.281Z,99778.13
2023-02-22T00:31:27.170Z,99783.88
2023-02-22T00:31:59.188Z,99781.06
2023-02-22T00:32:31.197Z,99781.91
2023-02-22T00:33:03.859Z,99787.72
2023-02-22T00:33:38.685Z,99785.44
2023-02-22T00:34:10.677Z,99792.06
2023-02-22T00:34:43.794Z,99794.19
2023-02-22T00:35:17.908Z,99778.25
2023-02-22T00:35:49.854Z,99786.44
2023-02-22T00:36:21.655Z,99788.41
2023-02-22T00:36:53.438Z,99792.94
2023-02-22T00:37:25.493Z,99795.75
2023-02-22T00:38:00.308Z,99790.78
2023-02-22T00:38:32.134Z,99791.50
2023-02-22T00:39:04.036Z,99795.88
2023-02-22T00:39:35.817Z,99792.63
2023-02-22T00:40:15.018Z,99796.03
2023-02-22T00:40:46.950Z,99797.00
2023-02-22T00:41:28.178Z,99796.44
2023-02-22T00:42:00.032Z,99789.41
2023-02-22T00:42:32.037Z,99791.50
2023-02-22T00:43:05.957Z,99791.50
2023-02-22T00:43:38.851Z,99794.03
2023-02-22T00:44:11.179Z,99796.44
2023-02-22T00:44:43.023Z,99792.78
2023-02-22T00:45:19.510Z,99781.09
2023-02-22T00:45:51.362Z,99796.31
2023-02-22T00:46:23.153Z,99792.94
2023-02-22T00:46:54.997Z,99797.72
2023-02-22T00:47:27.593Z,99794.31
2023-02-22T00:48:00.180Z,99786.69
2023-02-22T00:48:31.962Z,99788.94
2023-02-22T00:49:05.574Z,99796.00
2023-02-22T00:49:38.218Z,99793.34
2023-02-22T00:50:10.687Z,99796.97
2023-02-22T00:50:42.705Z,99790.94
2023-02-22T00:51:14.754Z,99791.78
2023-02-22T00:51:46.758Z,99787.97
2023-02-22T00:52:37.820Z,99790.78
2023-02-22T00:53:11.322Z,99788.66
2023-02-22T00:53:43.221Z,99787.56
2023-02-22T00:54:16.084Z,99796.56
2023-02-22T00:54:47.985Z,99797.69
2023-02-22T00:55:31.279Z,99790.66
2023-02-22T00:56:03.046Z,99783.91
2023-02-22T00:56:35.481Z,99783.75
2023-02-22T00:57:07.331Z,99790.66
2023-02-22T00:57:40.278Z,99790.22
2023-02-22T00:58:12.964Z,99787.25
2023-02-22T00:58:44.890Z,99791.63
2023-02-22T00:59:16.877Z,99796.44
2023-02-22T00:59:48.810Z,99784.88
2023-02-22T01:00:30.474Z,99782.78
2023-02-22T01:01:02.302Z,99790.94
2023-02-22T01:01:34.152Z,99787.72
2023-02-22T01:02:06.025Z,99791.06
2023-02-22T01:02:40.518Z,99785.59
2023-02-22T01:03:45.386Z,99785.31
2023-02-22T01:04:18.466Z,99779.25
2023-02-22T01:04:50.567Z,99775.59
2023-02-22T01:05:27.244Z,99781.63
2023-02-22T01:05:59.125Z,99775.44
2023-02-22T01:06:30.973Z,99783.63
2023-02-22T01:07:03.400Z,99781.94
2023-02-22T01:07:35.501Z,99782.09
2023-02-22T01:08:10.203Z,99782.09
2023-02-22T01:08:45.788Z,99779.53
2023-02-22T01:09:18.597Z,99775.47
2023-02-22T01:09:51.425Z,99776.84
2023-02-22T01:10:26.090Z,99781.63
2023-02-22T01:10:58.052Z,99776.16
2023-02-22T01:11:29.995Z,99775.19
2023-02-22T01:12:03.002Z,99774.59
2023-02-22T01:12:35.292Z,99774.44
2023-02-22T01:13:12.646Z,99779.78
2023-02-22T01:13:47.577Z,99777.28
2023-02-22T01:14:21.247Z,99779.09
2023-02-22T01:14:57.201Z,99779.09
2023-02-22T01:15:30.871Z,99775.59
2023-02-22T01:16:03.335Z,99779.41
2023-02-22T01:16:35.735Z,99775.00
2023-02-22T01:17:07.792Z,99778.97
2023-02-22T01:17:40.381Z,99782.22
2023-02-22T01:18:13.090Z,99774.19
2023-02-22T01:18:44.962Z,99782.34
2023-02-22T01:19:17.221Z,99778.56
2023-02-22T01:19:49.134Z,99777.69
2023-02-22T01:20:23.214Z,99777.81
2023-02-22T01:20:54.998Z,99780.66
2023-02-22T01:21:26.810Z,99784.31
2023-02-22T01:21:59.028Z,99779.94
2023-02-22T01:22:30.796Z,99773.31
2023-02-22T01:23:34.975Z,99775.72
2023-02-22T01:24:07.137Z,99777.56
2023-02-22T01:24:38.931Z,99777.69
2023-02-22T01:25:12.741Z,99772.88
2023-02-22T01:25:45.933Z,99777.41
2023-02-22T01:26:17.927Z,99769.25
2023-02-22T01:26:52.189Z,99775.44
2023-02-22T01:27:24.204Z,99771.09
2023-02-22T01:27:58.486Z,99772.19
2023-02-22T01:29:03.359Z,99768.97
2023-02-22T01:29:35.142Z,99768.81
2023-02-22T01:30:08.989Z,99772.88
2023-02-22T01:30:41.121Z,99776.97
2023-02-22T01:32:09.175Z,99772.03
2023-02-22T01:32:42.829Z,99769.13
2023-02-22T01:33:16.007Z,99772.63
2023-02-22T01:33:50.909Z,99771.94
2023-02-22T01:34:25.746Z,99769.25
2023-02-22T01:34:57.532Z,99777.53
2023-02-22T01:35:32.377Z,99769.81
2023-02-22T01:36:04.450Z,99770.22
2023-02-22T01:36:36.352Z,99765.03
2023-02-22T01:37:08.261Z,99772.31
2023-02-22T01:37:40.861Z,99769.09
2023-02-22T01:38:14.159Z,99765.56
2023-02-22T01:38:45.930Z,99769.09
2023-02-22T01:39:18.447Z,99768.41
2023-02-22T01:39:50.204Z,99767.41
2023-02-22T01:40:34.559Z,99768.25
2023-02-22T01:41:06.639Z,99768.41
2023-02-22T01:42:11.397Z,99765.00
2023-02-22T01:42:45.224Z,99774.97
2023-02-22T01:43:24.859Z,99775.97
2023-02-22T01:43:56.650Z,99768.09
2023-02-22T01:44:35.136Z,99767.06
2023-02-22T01:45:34.655Z,99769.19
2023-02-22T01:46:18.952Z,99767.47
2023-02-22T01:46:50.784Z,99773.69
2023-02-22T01:47:23.785Z,99772.97
2023-02-22T01:48:04.682Z,99764.25
2023-02-22T01:48:44.632Z,99773.13
2023-02-22T01:49:16.825Z,99771.72
2023-02-22T01:49:52.403Z,99771.44
2023-02-22T01:50:24.662Z,99767.47
2023-02-22T01:50:59.370Z,99763.25
2023-02-22T01:51:39.135Z,99771.41
2023-02-22T01:52:17.373Z,99765.94
2023-02-22T01:52:49.669Z,99769.44
2023-02-22T01:53:30.478Z,99768.91
2023-02-22T01:54:10.020Z,99768.59
2023-02-22T01:54:47.541Z,99768.06
2023-02-22T01:55:20.115Z,99765.50
2023-02-22T01:55:55.061Z,99763.41
2023-02-22T01:56:31.054Z,99766.47
2023-02-22T01:57:38.462Z,99768.16
2023-02-22T01:58:10.532Z,99761.44
2023-02-22T01:58:47.019Z,99766.03
2023-02-22T01:59:20.787Z,99771.53
2023-02-22T01:59:59.315Z,99766.78
2023-02-22T02:00:32.296Z,99764.22
2023-02-22T02:01:05.481Z,99762.38
2023-02-22T02:01:39.865Z,99761.69
2023-02-22T02:02:14.244Z,99768.31
2023-02-22T02:02:53.123Z,99770.84
2023-02-22T02:03:30.329Z,99766.78
2023-02-22T02:04:05.822Z,99767.88
2023-02-22T02:04:38.291Z,99763.66
2023-02-22T02:05:10.964Z,99764.22
2023-02-22T02:05:44.357Z,99763.25
2023-02-22T02:06:18.506Z,99762.97
2023-02-22T02:06:50.330Z,99763.66
2023-02-22T02:07:24.508Z,99759.72
2023-02-22T02:07:56.399Z,99764.94
2023-02-22T02:08:42.586Z,99763.66
2023-02-22T02:09:19.998Z,99762.56
2023-02-22T02:09:59.296Z,99765.38
2023-02-22T02:10:32.259Z,99767.03
2023-02-22T02:11:09.054Z,99764.75
2023-02-22T02:11:42.576Z,99760.53
2023-02-22T02:12:17.357Z,99764.75
2023-02-22T02:12:51.188Z,99764.34
2023-02-22T02:13:23.059Z,99762.22
2023-02-22T02:14:28.056Z,99771.75
2023-02-22T02:15:37.158Z,99763.75
2023-02-22T02:16:09.255Z,99769.09
2023-02-22T02:16:52.007Z,99768.25
2023-02-22T02:17:24.106Z,99774.56
2023-02-22T02:18:00.831Z,99766.81
2023-02-22T02:18:32.823Z,99765.13
2023-02-22T02:19:16.191Z,99764.03
2023-02-22T02:20:07.338Z,99764.72
2023-02-22T02:20:55.464Z,99759.66
2023-02-22T02:21:55.220Z,99765.72
2023-02-22T02:22:42.924Z,99766.56
2023-02-22T02:23:33.320Z,99765.41
2023-02-22T02:24:43.749Z,99756.28
2023-02-22T02:25:39.723Z,99760.38
2023-02-22T02:26:32.421Z,99758.81
2023-02-22T02:27:17.022Z,99758.25
2023-02-22T02:28:10.275Z,99754.59
2023-02-22T02:29:08.192Z,99750.38
2023-02-22T02:30:04.219Z,99758.69
2023-02-22T02:30:57.032Z,99753.47
2023-02-22T02:32:29.147Z,99753.06
2023-02-22T02:33:26.986Z,99748.00
2023-02-22T02:34:29.439Z,99751.94
2023-02-22T02:35:13.652Z,99748.00
2023-02-22T02:36:00.347Z,99752.06
2023-02-22T02:37:23.927Z,99747.72
2023-02-22T02:38:15.931Z,99749.41
2023-02-22T02:39:04.192Z,99748.94
2023-02-22T02:39:54.120Z,99755.97
2023-02-22T02:40:28.740Z,99758.09
2023-02-22T02:41:19.510Z,99755.66
2023-02-22T02:41:51.221Z,99754.38
2023-02-22T02:42:37.040Z,99758.72
2023-02-22T02:43:14.642Z,99758.88
2023-02-22T02:43:55.919Z,99752.91
2023-02-22T02:44:49.612Z,99757.09
2023-02-22T02:46:05.808Z,99761.59
2023-02-22T02:46:48.474Z,99761.63
2023-02-22T02:47:29.141Z,99762.16
2023-02-22T02:48:06.064Z,99757.94
2023-02-22T02:48:46.721Z,99764.72
2023-02-22T02:49:27.272Z,99754.06
2023-02-22T02:50:39.251Z,99763.88
2023-02-22T02:51:14.731Z,99755.19
2023-02-22T02:51:52.670Z,99763.34
2023-02-22T02:52:27.551Z,99767.78
2023-02-22T02:53:02.945Z,99763.44
2023-02-22T02:53:39.767Z,99757.25
2023-02-22T02:54:14.404Z,99754.72
2023-02-22T02:54:47.269Z,99759.09
2023-02-22T02:55:19.409Z,99763.72
2023-02-22T02:55:51.236Z,99758.53
2023-02-22T02:56:23.642Z,99758.94
2023-02-22T02:56:58.040Z,99758.09
2023-02-22T02:57:29.858Z,99755.56
2023-02-22T02:58:01.645Z,99755.44
2023-02-22T02:58:34.008Z,99745.59
2023-02-22T02:59:29.431Z,99749.09
2023-02-22T03:00:03.212Z,99746.56
2023-02-22T03:00:41.305Z,99751.38
2023-02-22T03:01:19.136Z,99760.66
2023-02-22T03:02:14.528Z,99755.44
2023-02-22T03:02:55.280Z,99757.25
2023-02-22T03:03:51.109Z,99750.56
2023-02-22T03:05:00.083Z,99746.78
2023-02-22T03:06:16.570Z,99751.16
2023-02-22T03:07:17.374Z,99755.50
2023-02-22T03:08:26.065Z,99747.63
2023-02-22T03:09:13.886Z,99749.47
2023-02-22T03:10:42.861Z,99756.69
2023-02-22T03:11:19.890Z,99753.44
2023-02-22T03:12:02.341Z,99750.00
2023-02-22T03:12:58.745Z,99753.06
2023-02-22T03:13:36.491Z,99749.03
2023-02-22T03:14:22.465Z,99758.63
2023-02-22T03:15:27.416Z,99760.44
2023-02-22T03:16:13.208Z,99752.22
2023-02-22T03:16:51.485Z,99759.78
2023-02-22T03:17:46.340Z,99761.50
2023-02-22T03:19:08.898Z,99751.25
2023-02-22T03:19:50.220Z,99747.63
2023-02-22T03:20:31.800Z,99754.50
2023-02-22T03:21:27.794Z,99748.19
2023-02-22T03:22:09.132Z,99752.53
2023-02-22T03:22:50.808Z,99751.44
2023-02-22T03:23:50.002Z,99751.16
2023-02-22T03:25:20.381Z,99749.50
2023-02-22T03:26:01.448Z,99747.41
2023-02-22T03:26:42.880Z,99741.22
2023-02-22T03:27:28.980Z,99748.66
2023-02-22T03:28:07.460Z,99749.63
2023-02-22T03:28:43.279Z,99752.16
2023-02-22T03:29:18.683Z,99751.03
2023-02-22T03:30:46.689Z,99750.78
2023-02-22T03:31:29.035Z,99750.19
2023-02-22T03:32:06.140Z,99753.44
2023-02-22T03:32:42.948Z,99754.56
2023-02-22T03:33:36.434Z,99752.28
2023-02-22T03:34:21.015Z,99747.94
2023-02-22T03:35:08.112Z,99744.28
2023-02-22T03:35:49.192Z,99751.75
2023-02-22T03:37:00.850Z,99752.31
2023-02-22T03:37:38.420Z,99751.63
2023-02-22T03:38:13.121Z,99752.28
2023-02-22T03:39:43.497Z,99751.75
2023-02-22T03:40:59.352Z,99749.78
2023-02-22T03:41:38.714Z,99746.69
2023-02-22T03:42:18.655Z,99751.03
2023-02-22T03:42:59.245Z,99745.28
2023-02-22T03:43:42.745Z,99746.38
2023-02-22T03:44:22.274Z,99746.22
2023-02-22T03:44:58.328Z,99750.31
2023-02-22T03:45:33.722Z,99743.03
2023-02-22T03:46:09.014Z,99747.41
2023-02-22T03:46:42.911Z,99745.28
2023-02-22T03:47:22.828Z,99749.63
2023-02-22T03:48:07.548Z,99753.69
2023-02-22T03:48:57.778Z,99752.00
2023-02-22T03:49:30.043Z,99756.38
2023-02-22T03:50:12.811Z,99753.00
2023-02-22T03:50:44.773Z,99751.44
2023-02-22T03:51:18.241Z,99757.78
2023-02-22T03:51:50.775Z,99756.66
2023-02-22T03:52:25.819Z,99745.84
2023-02-22T03:53:01.157Z,99751.31
2023-02-22T03:53:37.295Z,99753.28
2023-02-22T03:54:42.152Z,99750.63
2023-02-22T03:55:17.819Z,99758.72
2023-02-22T03:55:54.049Z,99752.81
2023-02-22T03:57:05.700Z,99757.19
2023-02-22T03:57:49.948Z,99756.34
2023-02-22T03:58:24.678Z,99757.47
2023-02-22T03:58:56.729Z,99758.16
2023-02-22T03:59:29.519Z,99759.84
2023-02-22T04:00:05.860Z,99756.19
2023-02-22T04:00:38.336Z,99763.13
2023-02-22T04:01:11.116Z,99760.44
2023-02-22T04:01:42.935Z,99763.13
2023-02-22T04:02:14.790Z,99754.50
2023-02-22T04:02:46.709Z,99753.34
2023-02-22T04:03:22.122Z,99763.19
2023-02-22T04:03:54.095Z,99766.72
2023-02-22T04:04:26.802Z,99756.72
2023-02-22T04:04:58.823Z,99760.13
2023-02-22T04:05:30.837Z,99765.34
2023-02-22T04:06:03.807Z,99760.13
2023-02-22T04:06:35.783Z,99764.28
2023-02-22T04:07:07.677Z,99764.41
2023-02-22T04:07:39.438Z,99769.19
2023-02-22T04:08:11.369Z,99762.16
2023-02-22T04:08:44.168Z,99760.34
2023-02-22T04:09:17.319Z,99766.06
2023-02-22T04:09:49.216Z,99761.00
2023-02-22T04:10:21.484Z,99760.03
2023-02-22T04:11:26.077Z,99761.81
2023-02-22T04:12:01.287Z,99760.75
2023-02-22T04:12:33.617Z,99760.75
2023-02-22T04:13:10.429Z,99760.28
2023-02-22T04:13:42.277Z,99769.00
2023-02-22T04:14:14.253Z,99770.56
2023-02-22T04:14:46.013Z,99763.03
2023-02-22T04:15:21.902Z,99768.91
2023-02-22T04:15:54.200Z,99768.66
2023-02-22T04:16:25.998Z,99765.53
2023-02-22T04:16:58.409Z,99769.44
2023-02-22T04:17:30.388Z,99767.91
2023-02-22T04:18:02.369Z,99761.72
2023-02-22T04:18:34.173Z,99770.72
2023-02-22T04:19:06.432Z,99761.00
2023-02-22T04:19:38.386Z,99766.22
2023-02-22T04:20:11.783Z,99765.94
2023-02-22T04:20:44.869Z,99766.78
2023-02-22T04:21:16.926Z,99764.81
2023-02-22T04:21:48.900Z,99768.47
2023-02-22T04:22:20.672Z,99765.22
2023-02-22T04:22:53.602Z,99760.44
2023-02-22T04:23:27.051Z,99763.78
2023-02-22T04:23:59.431Z,99763.53
2023-02-22T04:25:03.912Z,99769.00
2023-02-22T04:25:35.842Z,99759.44
2023-02-22T04:26:07.609Z,99760.03
2023-02-22T04:26:39.417Z,99767.06
2023-02-22T04:27:11.868Z,99763.53
2023-02-22T04:27:43.663Z,99760.28
2023-02-22T04:28:15.596Z,99762.09
2023-02-22T04:28:47.596Z,99768.88
2023-02-22T04:29:19.401Z,99766.91
2023-02-22T04:29:51.190Z,99764.50
2023-02-22T04:30:24.134Z,99761.97
2023-02-22T04:30:55.936Z,99769.00
2023-02-22T04:31:27.767Z,99763.09
2023-02-22T04:31:59.622Z,99764.78
2023-02-22T04:32:31.411Z,99762.94
2023-02-22T04:33:03.190Z,99765.38
2023-02-22T04:33:35.047Z,99763.41
2023-02-22T04:34:08.309Z,99766.91
2023-02-22T04:34:40.087Z,99766.22
2023-02-22T04:35:11.945Z,99769.00
2023-02-22T04:35:43.865Z,99769.00
2023-02-22T04:36:16.224Z,99771.78
2023-02-22T04:36:48.012Z,99766.59
2023-02-22T04:37:19.833Z,99768.28
2023-02-22T04:37:51.632Z,99763.66
2023-02-22T04:38:26.196Z,99770.72
2023-02-22T04:38:59.418Z,99761.25
2023-02-22T04:39:32.006Z,99765.03
2023-02-22T04:40:08.642Z,99764.91
2023-02-22T04:40:40.472Z,99763.22
2023-02-22T04:41:12.246Z,99770.63
2023-02-22T04:42:16.955Z,99767.00
2023-02-22T04:42:50.649Z,99764.59
2023-02-22T04:43:23.119Z,99769.19
2023-02-22T04:43:55.074Z,99765.81
2023-02-22T04:44:26.904Z,99763.69
2023-02-22T04:45:01.929Z,99771.53
2023-02-22T04:45:33.745Z,99768.16
2023-02-22T04:46:06.528Z,99768.03
2023-02-22T04:46:38.507Z,99765.38
2023-02-22T04:47:44.433Z,99768.16
2023-02-22T04:48:19.505Z,99773.78
2023-02-22T04:48:51.330Z,99765.03
2023-02-22T04:49:56.013Z,99761.53
2023-02-22T04:50:28.466Z,99761.66
2023-02-22T04:51:00.303Z,99756.19
2023-02-22T04:52:06.350Z,99762.50
2023-02-22T04:52:38.791Z,99768.56
2023-02-22T04:53:44.875Z,99762.06
2023-02-22T04:54:18.626Z,99759.66
2023-02-22T04:54:51.930Z,99765.22
2023-02-22T04:55:23.814Z,99761.16
2023-02-22T04:55:57.377Z,99765.75
2023-02-22T04:56:29.232Z,99768.31
2023-02-22T04:57:01.590Z,99769.25
2023-02-22T04:58:09.444Z,99769.66
2023-02-22T04:58:41.316Z,99765.56
2023-02-22T04:59:13.119Z,99770.19
2023-02-22T04:59:47.910Z,99766.53
2023-02-22T05:00:21.978Z,99765.69
2023-02-22T05:00:54.295Z,99764.19
2023-02-22T05:01:26.144Z,99759.84
2023-02-22T05:01:58.051Z,99765.56
2023-02-22T05:02:29.862Z,99762.03
2023-02-22T05:03:01.710Z,99763.16
2023-02-22T05:03:33.823Z,99770.19
2023-02-22T05:04:07.235Z,99762.50
2023-02-22T05:04:39.448Z,99767.56
2023-02-22T05:05:11.303Z,99765.75
2023-02-22T05:05:43.132Z,99761.78
2023-02-22T05:06:16.310Z,99767.38
2023-02-22T05:06:48.773Z,99759.50
2023-02-22T05:07:20.632Z,99761.78
2023-02-22T05:07:53.554Z,99762.66
2023-02-22T05:08:25.352Z,99764.44
2023-02-22T05:08:57.310Z,99767.97
2023-02-22T05:09:29.250Z,99765.31
2023-02-22T05:10:03.098Z,99773.41
2023-02-22T05:10:34.875Z,99769.53
2023-02-22T05:11:06.684Z,99758.72
2023-02-22T05:11:38.495Z,99764.91
2023-02-22T05:12:10.265Z,99771.81
2023-02-22T05:12:42.136Z,99766.25
2023-02-22T05:13:14.528Z,99762.66
2023-02-22T05:13:46.866Z,99767.72
2023-02-22T05:14:18.746Z,99761.16
2023-02-22T05:14:50.547Z,99766.06
2023-02-22T05:15:25.446Z,99761.72
2023-02-22T05:15:57.352Z,99761.59
2023-02-22T05:16:29.244Z,99766.81
2023-02-22T05:17:02.708Z,99763.31
2023-02-22T05:17:36.136Z,99758.81
2023-02-22T05:18:08.085Z,99764.25
2023-02-22T05:18:39.962Z,99760.88
2023-02-22T05:19:11.750Z,99762.69
2023-02-22T05:19:43.671Z,99763.81
2023-02-22T05:20:27.920Z,99764.19
2023-02-22T05:20:59.698Z,99768.81
2023-02-22T05:21:31.502Z,99765.56
2023-02-22T05:22:03.830Z,99766.19
2023-02-22T05:22:37.363Z,99762.94
2023-02-22T05:23:10.878Z,99764.19
2023-02-22T05:23:42.806Z,99770.09
2023-02-22T05:24:14.779Z,99765.59
2023-02-22T05:24:46.692Z,99765.72
2023-02-22T05:25:20.530Z,99773.03
2023-02-22T05:25:52.878Z,99769.75
2023-02-22T05:26:25.964Z,99768.19
2023-02-22T05:26:57.807Z,99778.72
2023-02-22T05:27:29.656Z,99768.91
2023-02-22T05:28:05.700Z,99771.34
2023-02-22T05:28:37.522Z,99773.16
2023-02-22T05:29:09.328Z,99771.44
2023-02-22T05:29:41.751Z,99774.22
2023-02-22T05:30:13.717Z,99770.13
2023-02-22T05:30:46.122Z,99768.34
2023-02-22T05:31:18.404Z,99775.44
2023-02-22T05:31:50.440Z,99774.50
2023-02-22T05:32:22.274Z,99783.44
2023-02-22T05:32:54.342Z,99784.31
2023-02-22T05:33:26.111Z,99779.00
2023-02-22T05:33:58.365Z,99770.25
2023-02-22T05:34:30.948Z,99776.44
2023-02-22T05:35:02.900Z,99779.69
2023-02-22T05:35:35.213Z,99772.69
2023-02-22T05:36:07.912Z,99776.19
2023-02-22T05:36:39.683Z,99784.19
2023-02-22T05:37:11.484Z,99779.69
2023-02-22T05:37:43.356Z,99783.59
2023-02-22T05:38:15.899Z,99783.47
2023-02-22T05:38:47.698Z,99783.81
2023-02-22T05:39:19.567Z,99786.47
2023-02-22T05:39:51.535Z,99777.75
2023-02-22T05:40:26.641Z,99773.28
2023-02-22T05:40:58.526Z,99781.16
2023-02-22T05:41:30.351Z,99775.59
2023-02-22T05:42:02.187Z,99782.59
2023-02-22T05:42:34.495Z,99778.63
2023-02-22T05:43:06.275Z,99788.41
2023-02-22T05:43:39.752Z,99781.75
2023-02-22T05:44:11.617Z,99781.84
2023-02-22T05:44:44.185Z,99783.81
2023-02-22T05:45:18.531Z,99783.69
2023-02-22T05:45:50.335Z,99779.84
2023-02-22T05:46:22.175Z,99786.97
2023-02-22T05:46:54.158Z,99781.84
2023-02-22T05:47:26.573Z,99782.69
2023-02-22T05:47:58.651Z,99789.50
2023-02-22T05:48:31.349Z,99774.50
2023-02-22T05:49:03.306Z,99778.00
2023-02-22T05:49:35.118Z,99785.03
2023-02-22T05:50:07.554Z,99789.66
2023-02-22T05:50:39.383Z,99783.22
2023-02-22T05:51:11.221Z,99781.53
2023-02-22T05:51:43.056Z,99790.22
2023-02-22T05:52:14.971Z,99788.16
2023-02-22T05:52:48.828Z,99782.69
2023-02-22T05:53:20.711Z,99785.22
2023-02-22T05:53:52.697Z,99781.47
2023-02-22T05:54:24.453Z,99785.69
2023-02-22T05:54:56.239Z,99782.19
2023-02-22T05:55:28.165Z,99794.53
2023-02-22T05:55:59.996Z,99785.00
2023-02-22T05:56:31.875Z,99792.84
2023-02-22T05:57:03.791Z,99788.38
2023-02-22T05:57:36.127Z,99796.88
2023-02-22T05:58:07.985Z,99780.88
2023-02-22T05:58:58.613Z,99795.75
2023-02-22T05:59:30.490Z,99794.06
2023-02-22T06:00:05.555Z,99796.72
2023-02-22T06:00:37.361Z,99793.22
2023-02-22T06:01:09.181Z,99793.09
2023-02-22T06:01:41.031Z,99794.66
2023-02-22T06:02:12.930Z,99795.53
2023-02-22T06:02:45.132Z,99795.66
2023-02-22T06:03:17.083Z,99796.72
2023-02-22T06:03:50.733Z,99796.38
2023-02-22T06:04:22.577Z,99805.81
2023-02-22T06:04:54.466Z,99793.56
2023-02-22T06:05:27.344Z,99796.50
2023-02-22T06:05:59.179Z,99800.56
2023-02-22T06:06:30.952Z,99802.72
2023-02-22T06:07:02.782Z,99804.19
2023-02-22T06:07:34.566Z,99805.63
2023-02-22T06:08:08.303Z,99803.06
2023-02-22T06:08:40.091Z,99798.72
2023-02-22T06:09:19.335Z,99802.34
2023-02-22T06:09:51.741Z,99800.53
2023-02-22T06:10:24.273Z,99807.41
2023-02-22T06:11:37.340Z,99804.75
2023-02-22T06:12:09.586Z,99811.47
2023-02-22T06:12:41.780Z,99814.38
2023-02-22T06:13:13.586Z,99807.09
2023-02-22T06:13:53.221Z,99808.53
2023-02-22T06:15:21.523Z,99807.78
2023-02-22T06:15:56.395Z,99812.00
2023-02-22T06:16:32.149Z,99814.06
2023-02-22T06:17:30.591Z,99820.13
2023-02-22T06:18:03.134Z,99812.97
2023-02-22T06:18:35.297Z,99812.56
2023-02-22T06:19:07.160Z,99816.69
2023-02-22T06:20:17.549Z,99817.06
2023-02-22T06:20:53.223Z,99810.66
2023-02-22T06:21:28.469Z,99818.25
2023-02-22T06:22:03.618Z,99811.81
2023-02-22T06:22:35.517Z,99820.38
2023-02-22T06:23:08.084Z,99808.63
2023-02-22T06:23:43.433Z,99815.38
2023-02-22T06:24:19.008Z,99824.34
2023-02-22T06:24:55.082Z,99819.53
2023-02-22T06:25:32.131Z,99816.50
2023-02-22T06:26:04.150Z,99811.75
2023-02-22T06:26:36.225Z,99813.19
2023-02-22T06:27:08.540Z,99818.97
2023-02-22T06:27:40.586Z,99816.16
2023-02-22T06:28:12.395Z,99822.25
2023-02-22T06:28:44.316Z,99819.44
2023-02-22T06:29:16.216Z,99824.38
2023-02-22T06:30:06.655Z,99820.13
2023-02-22T06:30:38.729Z,99826.06
2023-02-22T06:31:10.563Z,99818.06
2023-02-22T06:31:42.424Z,99825.94
2023-02-22T06:32:14.988Z,99828.00
2023-02-22T06:32:46.893Z,99827.56
2023-02-22T06:33:18.755Z,99830.03
2023-02-22T06:33:50.594Z,99831.13
2023-02-22T06:34:22.719Z,99839.84
2023-02-22T06:34:54.600Z,99840.44
2023-02-22T06:35:26.475Z,99834.38
2023-02-22T06:35:58.344Z,99832.97
2023-02-22T06:36:31.818Z,99835.34
2023-02-22T06:37:03.646Z,99836.94
2023-02-22T06:37:36.429Z,99840.81
2023-02-22T06:38:08.787Z,99833.34
2023-02-22T06:38:40.608Z,99840.63
2023-02-22T06:39:12.466Z,99838.69
2023-02-22T06:39:44.300Z,99837.13
2023-02-22T06:40:16.861Z,99844.00
2023-02-22T06:40:48.671Z,99838.44
2023-02-22T06:41:21.203Z,99843.88
2023-02-22T06:41:55.940Z,99834.47
2023-02-22T06:42:27.803Z,99844.28
2023-02-22T06:43:00.102Z,99847.94
2023-02-22T06:43:31.947Z,99843.78
2023-02-22T06:44:03.982Z,99841.81
2023-02-22T06:44:36.144Z,99845.59
2023-02-22T06:45:08.876Z,99839.28
2023-02-22T06:45:40.831Z,99846.44
2023-02-22T06:46:12.976Z,99833.34
2023-02-22T06:46:51.236Z,99836.72
2023-02-22T06:47:23.067Z,99844.47
2023-02-22T06:47:55.766Z,99842.66
2023-02-22T06:48:27.638Z,99848.00
2023-02-22T06:49:02.476Z,99848.84
2023-02-22T06:49:34.430Z,99839.16
2023-02-22T06:50:06.572Z,99847.59
2023-02-22T06:50:38.473Z,99841.03
2023-02-22T06:51:10.776Z,99838.56
2023-02-22T06:51:43.642Z,99844.34
2023-02-22T06:52:15.422Z,99846.06
2023-02-22T06:52:48.117Z,99837.78
2023-02-22T06:53:19.971Z,99841.16
2023-02-22T06:53:51.941Z,99838.94
2023-02-22T06:54:23.858Z,99838.41
2023-02-22T06:54:55.625Z,99842.31
2023-02-22T06:55:30.475Z,99843.75
2023-02-22T06:56:02.948Z,99831.53
2023-02-22T06:56:34.790Z,99839.53
2023-02-22T06:57:06.782Z,99848.09
2023-02-22T06:57:39.015Z,99841.91
2023-02-22T06:58:10.836Z,99841.78
2023-02-22T06:58:42.668Z,99841.53
2023-02-22T06:59:14.487Z,99844.75
2023-02-22T06:59:46.766Z,99848.03
2023-02-22T07:00:21.097Z,99848.34
2023-02-22T07:00:53.467Z,99847.66
2023-02-22T07:01:25.275Z,99843.06
2023-02-22T07:01:57.102Z,99846.69
2023-02-22T07:02:28.957Z,99841.50
2023-02-22T07:03:01.271Z,99842.91
2023-02-22T07:03:33.248Z,99843.94
2023-02-22T07:04:05.136Z,99842.41
2023-02-22T07:04:55.565Z,99838.94
2023-02-22T07:05:28.164Z,99848.84
2023-02-22T07:05:59.980Z,99843.50
2023-02-22T07:06:31.795Z,99842.28
2023-02-22T07:07:03.797Z,99841.28
2023-02-22T07:07:35.679Z,99845.53
2023-02-22T07:08:08.438Z,99851.59
2023-02-22T07:08:40.226Z,99847.22
2023-02-22T07:09:13.118Z,99847.53
2023-02-22T07:09:47.066Z,99838.94
2023-02-22T07:10:27.755Z,99843.47
2023-02-22T07:11:00.266Z,99841.66
2023-02-22T07:11:32.369Z,99834.88
2023-02-22T07:12:05.719Z,99846.97
2023-02-22T07:12:37.541Z,99842.03
2023-02-22T07:13:09.504Z,99842.78
2023-02-22T07:13:41.300Z,99841.06